sensor_id;sensor_type;location;lat;lon;timestamp;P1;durP1;ratioP1;P2;durP2;ratioP2
73585;SDS011;61865;50.232;18.614;2022-12-15T00:02:03;90.80;;;44.08;;
73585;SDS011;61865;50.232;18.614;2022-12-15T00:04:43;103.50;;;44.13;;
73585;SDS011;61865;50.232;18.614;2022-12-15T00:07:22;91.18;;;43.80;;
73585;SDS011;61865;50.232;18.614;2022-12-15T00:10:01;97.10;;;43.08;;
73585;SDS011;61865;50.232;18.614;2022-12-15T00:12:40;89.45;;;39.45;;
73585;SDS011;61865;50.232;18.614;2022-12-15T00:15:19;84.45;;;38.30;;
73585;SDS011;61865;50.232;18.614;2022-12-15T00:18:04;83.45;;;40.40;;
73585;SDS011;61865;50.232;18.614;2022-12-15T00:20:44;77.30;;;37.97;;
73585;SDS011;61865;50.232;18.614;2022-12-15T00:23:23;74.57;;;36.83;;
73585;SDS011;61865;50.232;18.614;2022-12-15T00:26:02;74.45;;;34.83;;
73585;SDS011;61865;50.232;18.614;2022-12-15T00:28:42;71.47;;;36.00;;
73585;SDS011;61865;50.232;18.614;2022-12-15T00:31:22;71.57;;;35.30;;
73585;SDS011;61865;50.232;18.614;2022-12-15T00:34:03;70.75;;;34.25;;
73585;SDS011;61865;50.232;18.614;2022-12-15T00:36:42;70.72;;;34.38;;
73585;SDS011;61865;50.232;18.614;2022-12-15T00:39:22;68.00;;;33.25;;
73585;SDS011;61865;50.232;18.614;2022-12-15T00:41:44;78.07;;;34.97;;
73585;SDS011;61865;50.232;18.614;2022-12-15T00:44:05;76.88;;;34.35;;
73585;SDS011;61865;50.232;18.614;2022-12-15T00:46:27;68.60;;;32.75;;
73585;SDS011;61865;50.232;18.614;2022-12-15T00:49:08;74.07;;;35.60;;
73585;SDS011;61865;50.232;18.614;2022-12-15T00:51:51;71.35;;;34.70;;
73585;SDS011;61865;50.232;18.614;2022-12-15T00:54:30;63.97;;;32.65;;
73585;SDS011;61865;50.232;18.614;2022-12-15T00:57:09;64.88;;;33.70;;
73585;SDS011;61865;50.232;18.614;2022-12-15T00:59:48;70.22;;;32.90;;
73585;SDS011;61865;50.232;18.614;2022-12-15T01:02:27;64.70;;;31.85;;
73585;SDS011;61865;50.232;18.614;2022-12-15T01:05:08;65.18;;;33.30;;
73585;SDS011;61865;50.232;18.614;2022-12-15T01:07:47;74.40;;;33.93;;
73585;SDS011;61865;50.232;18.614;2022-12-15T01:10:26;70.28;;;36.40;;
73585;SDS011;61865;50.232;18.614;2022-12-15T01:13:05;70.00;;;35.25;;
73585;SDS011;61865;50.232;18.614;2022-12-15T01:15:45;66.70;;;34.33;;
73585;SDS011;61865;50.232;18.614;2022-12-15T01:18:24;73.90;;;36.88;;
73585;SDS011;61865;50.232;18.614;2022-12-15T01:21:05;70.63;;;37.60;;
73585;SDS011;61865;50.232;18.614;2022-12-15T01:23:29;77.65;;;36.80;;
73585;SDS011;61865;50.232;18.614;2022-12-15T01:25:52;72.13;;;37.47;;
73585;SDS011;61865;50.232;18.614;2022-12-15T01:28:14;79.47;;;39.05;;
73585;SDS011;61865;50.232;18.614;2022-12-15T01:30:36;72.97;;;37.80;;
73585;SDS011;61865;50.232;18.614;2022-12-15T01:32:59;79.05;;;37.85;;
73585;SDS011;61865;50.232;18.614;2022-12-15T01:35:21;76.97;;;38.53;;
73585;SDS011;61865;50.232;18.614;2022-12-15T01:37:44;82.78;;;39.00;;
73585;SDS011;61865;50.232;18.614;2022-12-15T01:40:09;85.85;;;39.80;;
73585;SDS011;61865;50.232;18.614;2022-12-15T01:42:51;72.07;;;35.17;;
73585;SDS011;61865;50.232;18.614;2022-12-15T01:45:36;75.82;;;38.58;;
73585;SDS011;61865;50.232;18.614;2022-12-15T01:48:17;79.63;;;37.95;;
73585;SDS011;61865;50.232;18.614;2022-12-15T01:50:48;82.77;;;37.00;;
73585;SDS011;61865;50.232;18.614;2022-12-15T01:53:18;79.20;;;37.40;;
73585;SDS011;61865;50.232;18.614;2022-12-15T01:55:41;76.60;;;35.40;;
73585;SDS011;61865;50.232;18.614;2022-12-15T01:58:06;77.35;;;34.33;;
73585;SDS011;61865;50.232;18.614;2022-12-15T02:00:31;75.95;;;33.15;;
73585;SDS011;61865;50.232;18.614;2022-12-15T02:07:52;70.53;;;33.78;;
73585;SDS011;61865;50.232;18.614;2022-12-15T02:10:15;68.40;;;31.77;;
73585;SDS011;61865;50.232;18.614;2022-12-15T02:12:39;69.05;;;32.63;;
73585;SDS011;61865;50.232;18.614;2022-12-15T02:15:10;76.20;;;34.07;;
73585;SDS011;61865;50.232;18.614;2022-12-15T02:17:39;64.22;;;32.20;;
73585;SDS011;61865;50.232;18.614;2022-12-15T02:26:05;67.40;;;32.88;;
73585;SDS011;61865;50.232;18.614;2022-12-15T02:28:41;69.10;;;31.75;;
73585;SDS011;61865;50.232;18.614;2022-12-15T02:31:16;74.25;;;33.92;;
73585;SDS011;61865;50.232;18.614;2022-12-15T02:34:02;69.18;;;33.70;;
73585;SDS011;61865;50.232;18.614;2022-12-15T02:36:34;87.60;;;36.42;;
73585;SDS011;61865;50.232;18.614;2022-12-15T02:38:59;75.33;;;36.60;;
73585;SDS011;61865;50.232;18.614;2022-12-15T02:41:31;78.60;;;38.15;;
73585;SDS011;61865;50.232;18.614;2022-12-15T02:43:55;83.65;;;38.33;;
73585;SDS011;61865;50.232;18.614;2022-12-15T02:46:19;94.03;;;39.63;;
73585;SDS011;61865;50.232;18.614;2022-12-15T02:48:53;84.97;;;38.80;;
73585;SDS011;61865;50.232;18.614;2022-12-15T02:51:26;90.32;;;40.83;;
73585;SDS011;61865;50.232;18.614;2022-12-15T02:54:08;87.13;;;40.90;;
73585;SDS011;61865;50.232;18.614;2022-12-15T02:56:51;87.90;;;40.42;;
73585;SDS011;61865;50.232;18.614;2022-12-15T02:59:24;90.85;;;38.90;;
73585;SDS011;61865;50.232;18.614;2022-12-15T03:01:56;96.53;;;37.60;;
73585;SDS011;61865;50.232;18.614;2022-12-15T03:04:20;80.95;;;37.15;;
73585;SDS011;61865;50.232;18.614;2022-12-15T03:06:43;80.35;;;37.83;;
73585;SDS011;61865;50.232;18.614;2022-12-15T03:09:05;83.70;;;38.08;;
73585;SDS011;61865;50.232;18.614;2022-12-15T03:11:27;79.32;;;35.40;;
73585;SDS011;61865;50.232;18.614;2022-12-15T03:13:49;73.32;;;34.83;;
73585;SDS011;61865;50.232;18.614;2022-12-15T03:16:12;84.95;;;37.28;;
73585;SDS011;61865;50.232;18.614;2022-12-15T03:18:35;81.78;;;37.20;;
73585;SDS011;61865;50.232;18.614;2022-12-15T03:20:57;75.65;;;36.42;;
73585;SDS011;61865;50.232;18.614;2022-12-15T03:23:19;71.18;;;35.22;;
73585;SDS011;61865;50.232;18.614;2022-12-15T03:25:43;67.35;;;33.00;;
73585;SDS011;61865;50.232;18.614;2022-12-15T03:28:05;77.65;;;34.25;;
73585;SDS011;61865;50.232;18.614;2022-12-15T03:30:26;72.57;;;36.13;;
73585;SDS011;61865;50.232;18.614;2022-12-15T03:32:48;74.72;;;34.03;;
73585;SDS011;61865;50.232;18.614;2022-12-15T03:35:12;66.28;;;34.08;;
73585;SDS011;61865;50.232;18.614;2022-12-15T03:37:34;69.97;;;33.95;;
73585;SDS011;61865;50.232;18.614;2022-12-15T03:39:56;66.78;;;33.08;;
73585;SDS011;61865;50.232;18.614;2022-12-15T03:42:18;59.72;;;32.85;;
73585;SDS011;61865;50.232;18.614;2022-12-15T03:45:00;63.35;;;30.40;;
73585;SDS011;61865;50.232;18.614;2022-12-15T03:47:22;64.43;;;30.40;;
73585;SDS011;61865;50.232;18.614;2022-12-15T03:49:44;62.25;;;31.02;;
73585;SDS011;61865;50.232;18.614;2022-12-15T03:52:08;54.58;;;29.33;;
73585;SDS011;61865;50.232;18.614;2022-12-15T03:54:30;58.53;;;30.10;;
73585;SDS011;61865;50.232;18.614;2022-12-15T03:56:52;65.20;;;31.73;;
73585;SDS011;61865;50.232;18.614;2022-12-15T03:59:14;59.58;;;29.50;;
73585;SDS011;61865;50.232;18.614;2022-12-15T04:01:36;57.08;;;29.75;;
73585;SDS011;61865;50.232;18.614;2022-12-15T04:03:59;57.83;;;28.65;;
73585;SDS011;61865;50.232;18.614;2022-12-15T04:06:21;56.17;;;29.80;;
73585;SDS011;61865;50.232;18.614;2022-12-15T04:08:44;57.47;;;27.33;;
73585;SDS011;61865;50.232;18.614;2022-12-15T04:11:06;55.10;;;29.55;;
73585;SDS011;61865;50.232;18.614;2022-12-15T04:13:28;53.38;;;27.10;;
73585;SDS011;61865;50.232;18.614;2022-12-15T04:15:50;51.50;;;26.88;;
73585;SDS011;61865;50.232;18.614;2022-12-15T04:18:12;50.55;;;28.08;;
73585;SDS011;61865;50.232;18.614;2022-12-15T04:20:34;56.97;;;30.35;;
73585;SDS011;61865;50.232;18.614;2022-12-15T04:22:55;53.85;;;28.77;;
73585;SDS011;61865;50.232;18.614;2022-12-15T04:25:20;59.30;;;29.48;;
73585;SDS011;61865;50.232;18.614;2022-12-15T04:28:00;51.67;;;27.60;;
73585;SDS011;61865;50.232;18.614;2022-12-15T04:30:43;54.70;;;28.02;;
73585;SDS011;61865;50.232;18.614;2022-12-15T04:33:25;51.60;;;28.23;;
73585;SDS011;61865;50.232;18.614;2022-12-15T04:36:05;56.35;;;28.27;;
73585;SDS011;61865;50.232;18.614;2022-12-15T04:38:45;58.20;;;29.08;;
73585;SDS011;61865;50.232;18.614;2022-12-15T04:41:26;63.10;;;29.98;;
73585;SDS011;61865;50.232;18.614;2022-12-15T04:44:05;66.97;;;30.40;;
73585;SDS011;61865;50.232;18.614;2022-12-15T04:46:45;57.70;;;29.13;;
73585;SDS011;61865;50.232;18.614;2022-12-15T04:49:24;58.80;;;29.52;;
73585;SDS011;61865;50.232;18.614;2022-12-15T04:52:04;54.50;;;29.48;;
73585;SDS011;61865;50.232;18.614;2022-12-15T04:54:43;54.20;;;29.98;;
73585;SDS011;61865;50.232;18.614;2022-12-15T04:57:23;52.08;;;28.77;;
73585;SDS011;61865;50.232;18.614;2022-12-15T05:00:03;59.30;;;29.88;;
73585;SDS011;61865;50.232;18.614;2022-12-15T05:02:44;60.03;;;28.65;;
73585;SDS011;61865;50.232;18.614;2022-12-15T05:05:23;52.75;;;27.63;;
73585;SDS011;61865;50.232;18.614;2022-12-15T05:08:02;50.90;;;27.20;;
73585;SDS011;61865;50.232;18.614;2022-12-15T05:10:42;61.53;;;29.25;;
73585;SDS011;61865;50.232;18.614;2022-12-15T05:13:22;47.88;;;26.13;;
73585;SDS011;61865;50.232;18.614;2022-12-15T05:16:03;51.00;;;27.80;;
73585;SDS011;61865;50.232;18.614;2022-12-15T05:18:43;57.17;;;30.10;;
73585;SDS011;61865;50.232;18.614;2022-12-15T05:21:22;47.95;;;25.77;;
73585;SDS011;61865;50.232;18.614;2022-12-15T05:24:01;49.25;;;26.25;;
73585;SDS011;61865;50.232;18.614;2022-12-15T05:26:41;48.55;;;25.02;;
73585;SDS011;61865;50.232;18.614;2022-12-15T05:29:21;49.90;;;24.75;;
73585;SDS011;61865;50.232;18.614;2022-12-15T05:32:01;50.70;;;24.80;;
73585;SDS011;61865;50.232;18.614;2022-12-15T05:34:23;50.03;;;28.15;;
73585;SDS011;61865;50.232;18.614;2022-12-15T05:36:46;44.30;;;24.48;;
73585;SDS011;61865;50.232;18.614;2022-12-15T05:39:08;48.65;;;26.65;;
73585;SDS011;61865;50.232;18.614;2022-12-15T05:41:30;52.03;;;26.33;;
73585;SDS011;61865;50.232;18.614;2022-12-15T05:43:52;54.08;;;26.88;;
73585;SDS011;61865;50.232;18.614;2022-12-15T05:46:15;54.22;;;27.42;;
73585;SDS011;61865;50.232;18.614;2022-12-15T05:48:38;55.65;;;28.13;;
73585;SDS011;61865;50.232;18.614;2022-12-15T05:51:01;49.72;;;27.23;;
73585;SDS011;61865;50.232;18.614;2022-12-15T05:53:24;54.38;;;27.73;;
73585;SDS011;61865;50.232;18.614;2022-12-15T05:55:46;49.95;;;30.70;;
73585;SDS011;61865;50.232;18.614;2022-12-15T05:58:08;51.78;;;27.48;;
73585;SDS011;61865;50.232;18.614;2022-12-15T06:00:30;54.90;;;29.35;;
73585;SDS011;61865;50.232;18.614;2022-12-15T06:02:53;63.88;;;30.42;;
73585;SDS011;61865;50.232;18.614;2022-12-15T06:05:15;51.40;;;29.98;;
73585;SDS011;61865;50.232;18.614;2022-12-15T06:07:37;58.35;;;31.70;;
73585;SDS011;61865;50.232;18.614;2022-12-15T06:09:59;53.45;;;30.13;;
73585;SDS011;61865;50.232;18.614;2022-12-15T06:12:21;57.22;;;30.58;;
73585;SDS011;61865;50.232;18.614;2022-12-15T06:14:43;64.53;;;30.25;;
73585;SDS011;61865;50.232;18.614;2022-12-15T06:17:05;61.35;;;31.60;;
73585;SDS011;61865;50.232;18.614;2022-12-15T06:19:28;65.32;;;32.03;;
73585;SDS011;61865;50.232;18.614;2022-12-15T06:21:50;64.68;;;34.30;;
73585;SDS011;61865;50.232;18.614;2022-12-15T06:24:12;59.55;;;31.80;;
73585;SDS011;61865;50.232;18.614;2022-12-15T06:26:34;58.25;;;32.47;;
73585;SDS011;61865;50.232;18.614;2022-12-15T06:28:58;58.92;;;31.40;;
73585;SDS011;61865;50.232;18.614;2022-12-15T06:31:21;61.05;;;33.10;;
73585;SDS011;61865;50.232;18.614;2022-12-15T06:33:44;65.88;;;35.65;;
73585;SDS011;61865;50.232;18.614;2022-12-15T06:36:08;68.03;;;34.83;;
73585;SDS011;61865;50.232;18.614;2022-12-15T06:38:31;64.35;;;32.45;;
73585;SDS011;61865;50.232;18.614;2022-12-15T06:40:54;57.17;;;31.83;;
73585;SDS011;61865;50.232;18.614;2022-12-15T06:43:16;61.72;;;30.85;;
73585;SDS011;61865;50.232;18.614;2022-12-15T06:45:38;56.22;;;31.88;;
73585;SDS011;61865;50.232;18.614;2022-12-15T06:47:59;61.08;;;33.70;;
73585;SDS011;61865;50.232;18.614;2022-12-15T06:50:21;80.75;;;42.25;;
73585;SDS011;61865;50.232;18.614;2022-12-15T06:52:45;79.00;;;41.67;;
73585;SDS011;61865;50.232;18.614;2022-12-15T06:55:07;56.47;;;32.88;;
73585;SDS011;61865;50.232;18.614;2022-12-15T06:57:29;59.67;;;32.10;;
73585;SDS011;61865;50.232;18.614;2022-12-15T06:59:51;60.67;;;33.63;;
73585;SDS011;61865;50.232;18.614;2022-12-15T07:02:13;70.07;;;36.80;;
73585;SDS011;61865;50.232;18.614;2022-12-15T07:04:37;74.28;;;35.50;;
73585;SDS011;61865;50.232;18.614;2022-12-15T07:06:58;67.22;;;34.75;;
73585;SDS011;61865;50.232;18.614;2022-12-15T07:09:22;66.28;;;34.17;;
73585;SDS011;61865;50.232;18.614;2022-12-15T07:11:45;66.28;;;33.28;;
73585;SDS011;61865;50.232;18.614;2022-12-15T07:14:09;61.35;;;30.02;;
73585;SDS011;61865;50.232;18.614;2022-12-15T07:16:31;57.88;;;32.10;;
73585;SDS011;61865;50.232;18.614;2022-12-15T07:18:53;59.97;;;31.65;;
73585;SDS011;61865;50.232;18.614;2022-12-15T07:21:15;56.35;;;31.83;;
73585;SDS011;61865;50.232;18.614;2022-12-15T07:23:37;56.88;;;29.77;;
73585;SDS011;61865;50.232;18.614;2022-12-15T07:26:02;50.47;;;28.00;;
73585;SDS011;61865;50.232;18.614;2022-12-15T07:28:24;58.47;;;29.60;;
73585;SDS011;61865;50.232;18.614;2022-12-15T07:30:46;54.65;;;32.05;;
73585;SDS011;61865;50.232;18.614;2022-12-15T07:33:08;56.25;;;31.58;;
73585;SDS011;61865;50.232;18.614;2022-12-15T07:35:30;48.97;;;29.40;;
73585;SDS011;61865;50.232;18.614;2022-12-15T07:37:52;60.25;;;30.33;;
73585;SDS011;61865;50.232;18.614;2022-12-15T07:40:15;57.28;;;30.10;;
73585;SDS011;61865;50.232;18.614;2022-12-15T07:42:38;56.20;;;31.30;;
73585;SDS011;61865;50.232;18.614;2022-12-15T07:45:00;54.67;;;28.27;;
73585;SDS011;61865;50.232;18.614;2022-12-15T07:47:22;47.50;;;29.35;;
73585;SDS011;61865;50.232;18.614;2022-12-15T07:49:44;58.55;;;30.63;;
73585;SDS011;61865;50.232;18.614;2022-12-15T07:52:06;54.70;;;30.13;;
73585;SDS011;61865;50.232;18.614;2022-12-15T07:54:28;52.97;;;31.15;;
73585;SDS011;61865;50.232;18.614;2022-12-15T07:56:50;55.95;;;31.67;;
73585;SDS011;61865;50.232;18.614;2022-12-15T07:59:14;63.05;;;35.72;;
73585;SDS011;61865;50.232;18.614;2022-12-15T08:01:36;50.75;;;30.98;;
73585;SDS011;61865;50.232;18.614;2022-12-15T08:03:58;52.45;;;30.83;;
73585;SDS011;61865;50.232;18.614;2022-12-15T08:06:19;69.97;;;33.95;;
73585;SDS011;61865;50.232;18.614;2022-12-15T08:08:42;52.40;;;27.63;;
73585;SDS011;61865;50.232;18.614;2022-12-15T08:11:05;76.60;;;34.83;;
73585;SDS011;61865;50.232;18.614;2022-12-15T08:13:28;65.95;;;33.50;;
73585;SDS011;61865;50.232;18.614;2022-12-15T08:15:52;57.28;;;29.75;;
73585;SDS011;61865;50.232;18.614;2022-12-15T08:18:14;57.45;;;30.98;;
73585;SDS011;61865;50.232;18.614;2022-12-15T08:20:36;54.60;;;30.45;;
73585;SDS011;61865;50.232;18.614;2022-12-15T08:22:58;56.80;;;30.45;;
73585;SDS011;61865;50.232;18.614;2022-12-15T08:25:20;66.65;;;38.50;;
73585;SDS011;61865;50.232;18.614;2022-12-15T08:27:42;66.50;;;34.72;;
73585;SDS011;61865;50.232;18.614;2022-12-15T08:30:05;53.42;;;31.45;;
73585;SDS011;61865;50.232;18.614;2022-12-15T08:32:29;52.65;;;29.27;;
73585;SDS011;61865;50.232;18.614;2022-12-15T08:34:51;66.07;;;31.58;;
73585;SDS011;61865;50.232;18.614;2022-12-15T08:37:12;48.97;;;27.77;;
73585;SDS011;61865;50.232;18.614;2022-12-15T08:39:34;56.75;;;29.67;;
73585;SDS011;61865;50.232;18.614;2022-12-15T08:41:56;60.85;;;30.83;;
73585;SDS011;61865;50.232;18.614;2022-12-15T08:44:18;60.83;;;31.27;;
73585;SDS011;61865;50.232;18.614;2022-12-15T08:46:40;60.63;;;30.73;;
73585;SDS011;61865;50.232;18.614;2022-12-15T08:49:03;53.72;;;28.05;;
73585;SDS011;61865;50.232;18.614;2022-12-15T08:51:26;52.08;;;26.38;;
73585;SDS011;61865;50.232;18.614;2022-12-15T08:53:49;52.55;;;29.02;;
73585;SDS011;61865;50.232;18.614;2022-12-15T08:56:12;50.88;;;27.08;;
73585;SDS011;61865;50.232;18.614;2022-12-15T08:58:36;51.17;;;27.48;;
73585;SDS011;61865;50.232;18.614;2022-12-15T09:00:59;51.08;;;28.67;;
73585;SDS011;61865;50.232;18.614;2022-12-15T09:03:21;51.17;;;27.63;;
73585;SDS011;61865;50.232;18.614;2022-12-15T09:05:44;53.92;;;30.42;;
73585;SDS011;61865;50.232;18.614;2022-12-15T09:08:06;55.42;;;27.75;;
73585;SDS011;61865;50.232;18.614;2022-12-15T09:10:28;56.00;;;28.55;;
73585;SDS011;61865;50.232;18.614;2022-12-15T09:12:50;52.50;;;28.73;;
73585;SDS011;61865;50.232;18.614;2022-12-15T09:15:12;51.92;;;28.70;;
73585;SDS011;61865;50.232;18.614;2022-12-15T09:17:34;52.42;;;27.50;;
73585;SDS011;61865;50.232;18.614;2022-12-15T09:19:56;52.72;;;28.45;;
73585;SDS011;61865;50.232;18.614;2022-12-15T09:22:19;58.25;;;28.70;;
73585;SDS011;61865;50.232;18.614;2022-12-15T09:24:41;52.00;;;28.40;;
73585;SDS011;61865;50.232;18.614;2022-12-15T09:27:03;53.30;;;29.48;;
73585;SDS011;61865;50.232;18.614;2022-12-15T09:29:25;52.92;;;29.50;;
73585;SDS011;61865;50.232;18.614;2022-12-15T09:31:47;47.67;;;28.75;;
73585;SDS011;61865;50.232;18.614;2022-12-15T09:34:10;55.20;;;29.08;;
73585;SDS011;61865;50.232;18.614;2022-12-15T09:36:34;53.25;;;28.33;;
73585;SDS011;61865;50.232;18.614;2022-12-15T09:38:58;54.78;;;28.42;;
73585;SDS011;61865;50.232;18.614;2022-12-15T09:41:22;47.22;;;27.50;;
73585;SDS011;61865;50.232;18.614;2022-12-15T09:43:48;48.67;;;27.55;;
73585;SDS011;61865;50.232;18.614;2022-12-15T09:46:15;47.30;;;26.63;;
73585;SDS011;61865;50.232;18.614;2022-12-15T09:48:46;50.15;;;27.08;;
73585;SDS011;61865;50.232;18.614;2022-12-15T09:51:11;49.90;;;27.45;;
73585;SDS011;61865;50.232;18.614;2022-12-15T09:53:37;49.35;;;26.70;;
73585;SDS011;61865;50.232;18.614;2022-12-15T09:56:02;49.85;;;27.48;;
73585;SDS011;61865;50.232;18.614;2022-12-15T09:58:31;52.58;;;29.02;;
73585;SDS011;61865;50.232;18.614;2022-12-15T10:01:01;58.95;;;30.65;;
73585;SDS011;61865;50.232;18.614;2022-12-15T10:03:36;57.58;;;28.55;;
73585;SDS011;61865;50.232;18.614;2022-12-15T10:06:08;53.63;;;30.45;;
73585;SDS011;61865;50.232;18.614;2022-12-15T10:08:32;50.53;;;25.83;;
73585;SDS011;61865;50.232;18.614;2022-12-15T10:10:58;44.83;;;25.48;;
73585;SDS011;61865;50.232;18.614;2022-12-15T10:13:25;44.88;;;25.83;;
73585;SDS011;61865;50.232;18.614;2022-12-15T10:15:55;43.33;;;24.15;;
73585;SDS011;61865;50.232;18.614;2022-12-15T10:18:21;47.92;;;26.65;;
73585;SDS011;61865;50.232;18.614;2022-12-15T10:20:47;44.28;;;24.08;;
73585;SDS011;61865;50.232;18.614;2022-12-15T10:23:12;53.90;;;25.05;;
73585;SDS011;61865;50.232;18.614;2022-12-15T10:25:35;51.58;;;25.60;;
73585;SDS011;61865;50.232;18.614;2022-12-15T10:28:02;45.28;;;24.25;;
73585;SDS011;61865;50.232;18.614;2022-12-15T10:30:42;46.28;;;25.08;;
73585;SDS011;61865;50.232;18.614;2022-12-15T10:33:14;41.05;;;24.40;;
73585;SDS011;61865;50.232;18.614;2022-12-15T10:35:39;41.60;;;24.45;;
73585;SDS011;61865;50.232;18.614;2022-12-15T10:38:03;43.00;;;24.45;;
73585;SDS011;61865;50.232;18.614;2022-12-15T10:40:42;44.70;;;23.67;;
73585;SDS011;61865;50.232;18.614;2022-12-15T10:43:12;56.28;;;26.73;;
73585;SDS011;61865;50.232;18.614;2022-12-15T10:45:36;55.70;;;28.45;;
73585;SDS011;61865;50.232;18.614;2022-12-15T10:47:59;53.60;;;28.95;;
73585;SDS011;61865;50.232;18.614;2022-12-15T10:50:25;43.40;;;23.67;;
73585;SDS011;61865;50.232;18.614;2022-12-15T10:52:47;43.08;;;23.13;;
73585;SDS011;61865;50.232;18.614;2022-12-15T10:55:27;39.22;;;22.85;;
73585;SDS011;61865;50.232;18.614;2022-12-15T10:57:56;40.70;;;22.15;;
73585;SDS011;61865;50.232;18.614;2022-12-15T11:00:25;43.97;;;22.42;;
73585;SDS011;61865;50.232;18.614;2022-12-15T11:02:49;48.38;;;24.40;;
73585;SDS011;61865;50.232;18.614;2022-12-15T11:05:14;38.80;;;24.67;;
73585;SDS011;61865;50.232;18.614;2022-12-15T11:07:38;45.72;;;24.83;;
73585;SDS011;61865;50.232;18.614;2022-12-15T11:10:07;47.40;;;25.38;;
73585;SDS011;61865;50.232;18.614;2022-12-15T11:12:35;43.67;;;26.05;;
73585;SDS011;61865;50.232;18.614;2022-12-15T11:17:59;42.42;;;25.15;;
73585;SDS011;61865;50.232;18.614;2022-12-15T11:20:31;48.45;;;24.88;;
73585;SDS011;61865;50.232;18.614;2022-12-15T11:22:57;48.13;;;26.20;;
73585;SDS011;61865;50.232;18.614;2022-12-15T11:25:27;50.50;;;26.20;;
73585;SDS011;61865;50.232;18.614;2022-12-15T11:27:55;39.25;;;23.27;;
73585;SDS011;61865;50.232;18.614;2022-12-15T11:30:20;39.60;;;22.45;;
73585;SDS011;61865;50.232;18.614;2022-12-15T11:32:46;38.88;;;21.90;;
73585;SDS011;61865;50.232;18.614;2022-12-15T11:35:13;41.85;;;22.45;;
73585;SDS011;61865;50.232;18.614;2022-12-15T11:37:37;34.85;;;21.67;;
73585;SDS011;61865;50.232;18.614;2022-12-15T11:40:04;41.97;;;22.02;;
73585;SDS011;61865;50.232;18.614;2022-12-15T11:42:46;45.38;;;23.30;;
73585;SDS011;61865;50.232;18.614;2022-12-15T11:45:17;39.33;;;22.67;;
73585;SDS011;61865;50.232;18.614;2022-12-15T11:47:47;39.83;;;23.17;;
73585;SDS011;61865;50.232;18.614;2022-12-15T11:52:58;39.08;;;23.80;;
73585;SDS011;61865;50.232;18.614;2022-12-15T11:55:30;41.15;;;22.35;;
73585;SDS011;61865;50.232;18.614;2022-12-15T11:58:03;43.95;;;23.83;;
73585;SDS011;61865;50.232;18.614;2022-12-15T12:00:41;41.13;;;21.85;;
73585;SDS011;61865;50.232;18.614;2022-12-15T12:03:11;40.05;;;23.30;;
73585;SDS011;61865;50.232;18.614;2022-12-15T12:06:01;36.80;;;21.70;;
73585;SDS011;61865;50.232;18.614;2022-12-15T12:08:34;43.35;;;22.42;;
73585;SDS011;61865;50.232;18.614;2022-12-15T12:11:09;37.63;;;21.50;;
73585;SDS011;61865;50.232;18.614;2022-12-15T12:13:35;39.95;;;22.67;;
73585;SDS011;61865;50.232;18.614;2022-12-15T12:16:08;40.40;;;21.23;;
73585;SDS011;61865;50.232;18.614;2022-12-15T12:18:46;37.10;;;21.48;;
73585;SDS011;61865;50.232;18.614;2022-12-15T12:21:15;44.10;;;22.10;;
73585;SDS011;61865;50.232;18.614;2022-12-15T12:23:44;43.53;;;21.95;;
73585;SDS011;61865;50.232;18.614;2022-12-15T12:28:42;38.50;;;22.20;;
73585;SDS011;61865;50.232;18.614;2022-12-15T12:31:08;38.25;;;21.33;;
73585;SDS011;61865;50.232;18.614;2022-12-15T12:33:42;40.58;;;22.83;;
73585;SDS011;61865;50.232;18.614;2022-12-15T12:36:10;40.03;;;20.90;;
73585;SDS011;61865;50.232;18.614;2022-12-15T12:38:34;49.35;;;21.98;;
73585;SDS011;61865;50.232;18.614;2022-12-15T12:41:00;38.42;;;21.48;;
73585;SDS011;61865;50.232;18.614;2022-12-15T12:43:30;40.95;;;23.90;;
73585;SDS011;61865;50.232;18.614;2022-12-15T12:45:54;44.42;;;24.45;;
73585;SDS011;61865;50.232;18.614;2022-12-15T12:48:20;42.60;;;24.40;;
73585;SDS011;61865;50.232;18.614;2022-12-15T12:50:49;46.70;;;25.98;;
73585;SDS011;61865;50.232;18.614;2022-12-15T12:53:22;48.85;;;25.23;;
73585;SDS011;61865;50.232;18.614;2022-12-15T12:55:47;49.53;;;26.05;;
73585;SDS011;61865;50.232;18.614;2022-12-15T13:01:02;53.78;;;27.27;;
73585;SDS011;61865;50.232;18.614;2022-12-15T13:03:26;54.40;;;28.50;;
73585;SDS011;61865;50.232;18.614;2022-12-15T13:05:50;52.53;;;27.42;;
73585;SDS011;61865;50.232;18.614;2022-12-15T13:14:14;48.58;;;25.80;;
73585;SDS011;61865;50.232;18.614;2022-12-15T13:16:39;58.53;;;28.40;;
73585;SDS011;61865;50.232;18.614;2022-12-15T13:19:02;53.25;;;28.42;;
73585;SDS011;61865;50.232;18.614;2022-12-15T13:24:17;56.75;;;29.67;;
73585;SDS011;61865;50.232;18.614;2022-12-15T13:26:46;56.03;;;32.35;;
73585;SDS011;61865;50.232;18.614;2022-12-15T13:29:08;67.07;;;34.50;;
73585;SDS011;61865;50.232;18.614;2022-12-15T13:31:41;61.78;;;35.58;;
73585;SDS011;61865;50.232;18.614;2022-12-15T13:34:17;60.08;;;32.17;;
73585;SDS011;61865;50.232;18.614;2022-12-15T13:36:46;64.97;;;35.30;;
73585;SDS011;61865;50.232;18.614;2022-12-15T13:42:21;80.57;;;38.33;;
73585;SDS011;61865;50.232;18.614;2022-12-15T13:44:53;83.30;;;44.03;;
73585;SDS011;61865;50.232;18.614;2022-12-15T13:47:24;69.88;;;40.67;;
73585;SDS011;61865;50.232;18.614;2022-12-15T13:49:50;79.32;;;41.17;;
73585;SDS011;61865;50.232;18.614;2022-12-15T13:52:22;77.70;;;42.05;;
73585;SDS011;61865;50.232;18.614;2022-12-15T13:54:51;84.32;;;41.38;;
73585;SDS011;61865;50.232;18.614;2022-12-15T13:57:20;82.68;;;41.35;;
73585;SDS011;61865;50.232;18.614;2022-12-15T13:59:45;74.00;;;40.80;;
73585;SDS011;61865;50.232;18.614;2022-12-15T14:02:21;82.85;;;41.65;;
73585;SDS011;61865;50.232;18.614;2022-12-15T14:04:45;78.53;;;41.00;;
73585;SDS011;61865;50.232;18.614;2022-12-15T14:07:31;81.55;;;41.70;;
73585;SDS011;61865;50.232;18.614;2022-12-15T14:09:54;65.82;;;37.20;;
73585;SDS011;61865;50.232;18.614;2022-12-15T14:12:16;71.60;;;38.17;;
73585;SDS011;61865;50.232;18.614;2022-12-15T14:14:44;69.93;;;37.63;;
73585;SDS011;61865;50.232;18.614;2022-12-15T14:17:08;77.25;;;36.10;;
73585;SDS011;61865;50.232;18.614;2022-12-15T14:19:38;73.95;;;37.38;;
73585;SDS011;61865;50.232;18.614;2022-12-15T14:22:01;70.97;;;38.35;;
73585;SDS011;61865;50.232;18.614;2022-12-15T14:24:25;71.72;;;39.83;;
73585;SDS011;61865;50.232;18.614;2022-12-15T14:26:48;73.28;;;39.38;;
73585;SDS011;61865;50.232;18.614;2022-12-15T14:29:10;78.53;;;38.92;;
73585;SDS011;61865;50.232;18.614;2022-12-15T14:31:35;76.30;;;39.08;;
73585;SDS011;61865;50.232;18.614;2022-12-15T14:33:59;81.88;;;42.95;;
73585;SDS011;61865;50.232;18.614;2022-12-15T14:36:23;92.97;;;43.85;;
73585;SDS011;61865;50.232;18.614;2022-12-15T14:38:47;87.90;;;45.75;;
73585;SDS011;61865;50.232;18.614;2022-12-15T14:41:13;100.65;;;46.95;;
73585;SDS011;61865;50.232;18.614;2022-12-15T14:43:41;92.70;;;45.75;;
73585;SDS011;61865;50.232;18.614;2022-12-15T14:46:06;94.63;;;43.30;;